Time;durP1;ratioP1;P1;durP2;ratioP2;P2;SDS_P1;SDS_P2;PMS_P1;PMS_P2;Temp;Humidity;BMP_temperature;BMP_pressure;BME280_temperature;BME280_humidity;BME280_pressure;Samples;Min_cycle;Max_cycle;Signal;HPM_P1;HPM_P2
2023/06/15 00:00:42;;;;;;;4.10;2.53;;;18.60;50.50;;;;;;4972468;28;20435;-73
2023/06/15 00:03:08;;;;;;;2.43;2.23;;;18.50;50.80;;;;;;4966498;28;20430;-73
2023/06/15 00:05:33;;;;;;;2.47;2.20;;;18.50;51.00;;;;;;4958633;29;20434;-73
2023/06/15 00:07:59;;;;;;;3.80;2.20;;;18.30;51.20;;;;;;4960878;28;20208;-73
2023/06/15 00:10:24;;;;;;;2.97;2.37;;;18.30;51.40;;;;;;4976233;28;20602;-73
2023/06/15 00:12:50;;;;;;;3.60;2.47;;;18.20;51.60;;;;;;4958595;29;20584;-71
2023/06/15 00:15:17;;;;;;;2.73;2.33;;;18.20;51.80;;;;;;4972152;28;20223;-73
2023/06/15 00:17:43;;;;;;;3.10;2.27;;;18.20;51.60;;;;;;4957757;29;20497;-72
2023/06/15 00:20:12;;;;;;;2.87;2.37;;;18.20;51.60;;;;;;4957645;28;20554;-72
2023/06/15 00:22:40;;;;;;;2.60;2.20;;;18.20;51.60;;;;;;4970367;28;20423;-71
2023/06/15 00:25:06;;;;;;;2.80;2.40;;;18.10;51.70;;;;;;4984158;28;20430;-73
2023/06/15 00:27:36;;;;;;;2.70;2.40;;;18.00;51.90;;;;;;4982977;28;20434;-71
2023/06/15 00:30:04;;;;;;;1.97;1.60;;;17.90;52.10;;;;;;4957960;28;20549;-72
2023/06/15 00:32:29;;;;;;;3.33;2.10;;;17.80;52.20;;;;;;4960216;29;20435;-72
2023/06/15 00:34:55;;;;;;;2.87;2.50;;;17.80;52.60;;;;;;4961609;28;20506;-73
2023/06/15 00:37:21;;;;;;;3.50;2.50;;;17.70;52.60;;;;;;4947519;29;20248;-73
2023/06/15 00:39:47;;;;;;;2.60;2.30;;;17.70;52.80;;;;;;4935506;28;20207;-72
2023/06/15 00:42:12;;;;;;;5.27;2.10;;;17.60;52.90;;;;;;4967638;28;20598;-72
2023/06/15 00:44:38;;;;;;;2.10;1.90;;;17.50;53.20;;;;;;4952206;29;20176;-73
2023/06/15 00:47:04;;;;;;;2.67;2.37;;;17.50;53.40;;;;;;4959069;28;20214;-73
2023/06/15 00:49:32;;;;;;;3.70;2.23;;;17.40;53.50;;;;;;4964119;28;20221;-73
2023/06/15 00:51:59;;;;;;;2.30;2.10;;;17.40;53.70;;;;;;4972662;28;20414;-71
2023/06/15 00:54:26;;;;;;;2.57;2.23;;;17.30;53.70;;;;;;4980659;28;20425;-72
2023/06/15 00:56:52;;;;;;;2.00;1.80;;;17.30;53.90;;;;;;4976041;28;20466;-71
2023/06/15 00:59:19;;;;;;;3.20;2.17;;;17.30;54.00;;;;;;4957331;29;20436;-73
2023/06/15 01:01:47;;;;;;;3.20;2.03;;;17.20;54.10;;;;;;4942248;29;20434;-73
2023/06/15 01:04:14;;;;;;;4.50;2.13;;;17.20;54.20;;;;;;4938057;29;20913;-72
2023/06/15 01:06:51;;;;;;;3.10;2.80;;;17.20;54.20;;;;;;4941255;29;20536;-72
2023/06/15 01:09:21;;;;;;;2.70;2.50;;;17.20;54.90;;;;;;4957249;29;20257;-73
2023/06/15 01:11:57;;;;;;;3.57;2.30;;;17.20;54.40;;;;;;4949228;29;20896;-71
2023/06/15 01:14:28;;;;;;;2.40;1.93;;;17.20;54.40;;;;;;4941365;29;20431;-72
2023/06/15 01:16:59;;;;;;;2.87;2.60;;;17.20;54.60;;;;;;4942563;29;20481;-72
2023/06/15 01:20:08;;;;;;;2.70;2.50;;;17.20;54.80;;;;;;4934025;29;20443;-71
2023/06/15 01:23:13;;;;;;;2.50;2.30;;;17.20;54.70;;;;;;4961643;29;20460;-74
2023/06/15 01:25:45;;;;;;;3.10;2.30;;;17.20;54.80;;;;;;4947583;29;20534;-72
2023/06/15 01:28:20;;;;;;;2.50;2.13;;;17.10;54.80;;;;;;4961124;29;20427;-71
2023/06/15 01:30:52;;;;;;;2.60;2.10;;;17.10;55.00;;;;;;4940799;29;20560;-73
2023/06/15 01:33:18;;;;;;;2.10;1.90;;;17.10;55.10;;;;;;4942144;29;20424;-71
2023/06/15 01:35:44;;;;;;;3.07;2.07;;;17.10;55.20;;;;;;4961275;29;20408;-72
2023/06/15 01:38:10;;;;;;;2.63;1.77;;;17.00;55.30;;;;;;4960152;29;20908;-72
2023/06/15 01:40:46;;;;;;;2.43;2.23;;;17.00;55.40;;;;;;4960050;29;20205;-72
2023/06/15 01:43:15;;;;;;;3.47;2.73;;;17.00;55.50;;;;;;4961395;29;20429;-73
2023/06/15 01:45:43;;;;;;;2.43;2.10;;;16.90;55.70;;;;;;4943882;29;20871;-72
2023/06/15 01:48:09;;;;;;;2.10;1.90;;;16.80;55.80;;;;;;4925631;29;20896;-72
2023/06/15 01:50:36;;;;;;;2.80;2.50;;;16.80;55.90;;;;;;4943814;29;20479;-71
2023/06/15 01:53:02;;;;;;;2.60;2.37;;;16.80;56.00;;;;;;4953366;29;20429;-72
2023/06/15 01:55:28;;;;;;;3.70;2.80;;;16.90;56.00;;;;;;4967137;29;20437;-71
2023/06/15 01:57:54;;;;;;;2.93;2.63;;;16.90;56.10;;;;;;4929734;29;20308;-72
2023/06/15 02:00:22;;;;;;;3.63;2.63;;;16.90;56.10;;;;;;4931695;28;20568;-71
2023/06/15 02:02:48;;;;;;;3.37;1.97;;;16.80;56.10;;;;;;4980450;28;20689;-71
2023/06/15 02:05:14;;;;;;;2.17;1.97;;;16.80;56.30;;;;;;4929041;29;20441;-71
2023/06/15 02:07:40;;;;;;;2.10;1.90;;;16.80;56.30;;;;;;4946440;28;20201;-73
2023/06/15 02:10:06;;;;;;;2.63;1.70;;;16.70;56.40;;;;;;4980400;28;20463;-72
2023/06/15 02:12:32;;;;;;;3.20;2.07;;;16.70;56.60;;;;;;4952387;29;20193;-71
2023/06/15 02:15:01;;;;;;;2.87;1.87;;;16.60;56.60;;;;;;4964080;28;20851;-71
2023/06/15 02:17:38;;;;;;;2.80;1.63;;;16.60;56.80;;;;;;4946375;28;20696;-72
2023/06/15 02:20:08;;;;;;;6.10;2.17;;;16.50;56.80;;;;;;4939476;29;20926;-72
2023/06/15 02:22:34;;;;;;;3.03;2.40;;;16.50;56.90;;;;;;4964462;28;20497;-71
2023/06/15 02:24:59;;;;;;;2.93;2.63;;;16.50;57.10;;;;;;4978873;28;20424;-72
2023/06/15 02:27:25;;;;;;;3.60;2.30;;;16.50;57.10;;;;;;4956782;29;20200;-73
2023/06/15 02:29:51;;;;;;;3.37;2.83;;;16.50;57.00;;;;;;4960520;28;20213;-73
2023/06/15 02:32:37;;;;;;;4.00;2.60;;;16.50;57.00;;;;;;4978467;28;20213;-73
2023/06/15 02:35:05;;;;;;;3.10;2.53;;;16.50;56.80;;;;;;4946049;29;20539;-71
2023/06/15 02:37:31;;;;;;;3.40;3.07;;;16.50;56.80;;;;;;4954492;28;20472;-72
2023/06/15 02:39:57;;;;;;;3.47;2.30;;;16.60;56.90;;;;;;4978518;28;20432;-72
2023/06/15 02:42:23;;;;;;;2.63;2.30;;;16.50;56.80;;;;;;4966064;28;20429;-73
2023/06/15 02:44:50;;;;;;;4.07;2.40;;;16.50;57.40;;;;;;4961043;28;20180;-73
2023/06/15 02:47:16;;;;;;;6.30;2.90;;;16.50;56.80;;;;;;4959529;28;20434;-73
2023/06/15 02:49:41;;;;;;;4.30;2.80;;;16.50;56.80;;;;;;4929903;28;20621;-72
2023/06/15 02:52:07;;;;;;;4.10;3.10;;;16.50;56.60;;;;;;4960717;29;20201;-72
2023/06/15 02:54:34;;;;;;;6.97;3.10;;;16.60;56.60;;;;;;4942056;29;20335;-72
2023/06/15 02:57:01;;;;;;;2.63;2.30;;;16.60;56.50;;;;;;4953774;28;20471;-72
2023/06/15 02:59:30;;;;;;;3.40;2.77;;;16.50;56.40;;;;;;4941978;29;20452;-71
2023/06/15 03:02:04;;;;;;;2.87;2.50;;;16.50;56.60;;;;;;4959613;28;20742;-72
2023/06/15 03:04:32;;;;;;;2.90;2.27;;;16.40;56.70;;;;;;4926952;29;20875;-73
2023/06/15 03:06:59;;;;;;;3.30;2.43;;;16.40;56.80;;;;;;4944388;28;20545;-72
2023/06/15 03:09:49;;;;;;;3.90;2.90;;;16.30;56.80;;;;;;4976377;28;20447;-73
2023/06/15 03:12:16;;;;;;;3.30;3.00;;;16.30;57.00;;;;;;4970070;28;20495;-73
2023/06/15 03:14:50;;;;;;;4.40;2.70;;;16.40;57.10;;;;;;4974293;28;20413;-72
2023/06/15 03:17:21;;;;;;;3.10;2.80;;;16.40;57.10;;;;;;4971957;28;20466;-71
2023/06/15 03:19:47;;;;;;;2.70;2.47;;;16.40;57.00;;;;;;4957709;28;20460;-72
2023/06/15 03:22:14;;;;;;;3.10;2.70;;;16.40;57.10;;;;;;4978301;28;20876;-73
2023/06/15 03:24:41;;;;;;;3.67;2.40;;;16.40;57.20;;;;;;4959110;28;20435;-72
2023/06/15 03:27:09;;;;;;;2.80;2.30;;;16.40;57.20;;;;;;4966044;28;20443;-73
2023/06/15 03:29:37;;;;;;;2.77;2.43;;;16.30;57.10;;;;;;4960677;28;20440;-72
2023/06/15 03:32:07;;;;;;;2.13;1.93;;;16.30;57.10;;;;;;4951051;29;20536;-73
2023/06/15 03:34:35;;;;;;;2.77;2.23;;;16.30;57.20;;;;;;4956386;29;20436;-73
2023/06/15 03:37:01;;;;;;;2.20;2.00;;;16.30;57.30;;;;;;4962339;28;20463;-72
2023/06/15 03:39:27;;;;;;;2.73;2.37;;;16.30;57.50;;;;;;4976931;28;20455;-72
2023/06/15 03:41:53;;;;;;;3.60;2.27;;;16.30;58.00;;;;;;4965341;28;20459;-72
2023/06/15 03:44:19;;;;;;;2.83;2.40;;;16.40;58.20;;;;;;4942484;29;20185;-72
2023/06/15 03:46:46;;;;;;;3.60;2.30;;;16.40;58.30;;;;;;4947071;28;20192;-72
2023/06/15 03:49:13;;;;;;;2.97;2.13;;;16.40;58.40;;;;;;4966811;28;20446;-73
2023/06/15 03:51:40;;;;;;;5.10;2.50;;;16.40;58.40;;;;;;4973609;28;20402;-71
2023/06/15 03:54:05;;;;;;;2.97;1.97;;;16.50;58.50;;;;;;4959625;28;20420;-73
2023/06/15 03:56:31;;;;;;;2.93;2.23;;;16.50;58.60;;;;;;4944949;28;20273;-72
2023/06/15 03:58:57;;;;;;;2.33;2.13;;;16.50;58.60;;;;;;4962215;29;20213;-72
2023/06/15 04:01:25;;;;;;;3.37;2.83;;;16.60;58.70;;;;;;4943821;29;20389;-73
2023/06/15 04:03:52;;;;;;;2.00;1.60;;;16.60;58.50;;;;;;4925873;29;20535;-73
2023/06/15 04:06:21;;;;;;;2.77;2.00;;;16.60;58.40;;;;;;4957804;29;20888;-71
2023/06/15 04:08:47;;;;;;;2.27;2.00;;;16.70;58.40;;;;;;4924732;29;20466;-72
2023/06/15 04:11:13;;;;;;;2.30;1.83;;;16.70;58.60;;;;;;4906571;29;20418;-72
2023/06/15 04:13:39;;;;;;;1.80;1.70;;;16.70;58.50;;;;;;4940435;29;20393;-71
2023/06/15 04:16:05;;;;;;;1.90;1.70;;;16.80;58.50;;;;;;4937225;29;20893;-73
2023/06/15 04:18:30;;;;;;;2.77;2.10;;;16.80;58.40;;;;;;4940953;29;20221;-73
2023/06/15 04:20:56;;;;;;;1.63;1.50;;;16.90;58.40;;;;;;4939989;29;20713;-72
2023/06/15 04:23:22;;;;;;;2.50;1.57;;;17.00;58.50;;;;;;4944994;29;20476;-74
2023/06/15 04:25:49;;;;;;;1.90;1.60;;;17.00;58.40;;;;;;4937960;29;20209;-73
2023/06/15 04:28:16;;;;;;;2.27;2.07;;;17.10;58.50;;;;;;4930182;29;20413;-73
2023/06/15 04:30:47;;;;;;;2.60;2.27;;;17.10;58.40;;;;;;4940227;29;20488;-72
2023/06/15 04:33:16;;;;;;;4.40;2.17;;;17.20;58.30;;;;;;4939159;29;20479;-73
2023/06/15 04:35:46;;;;;;;3.00;2.60;;;17.30;58.20;;;;;;4921907;29;20774;-74
2023/06/15 04:38:13;;;;;;;3.10;2.40;;;17.30;58.00;;;;;;4927960;29;20520;-75
2023/06/15 04:40:41;;;;;;;2.50;2.30;;;17.40;57.90;;;;;;4941019;29;20536;-75
2023/06/15 04:43:08;;;;;;;3.40;3.10;;;17.50;57.80;;;;;;4941508;29;20463;-72
2023/06/15 04:45:35;;;;;;;2.60;2.20;;;17.70;57.80;;;;;;4941734;29;20417;-72
2023/06/15 04:48:01;;;;;;;3.73;2.93;;;18.30;57.30;;;;;;4923503;29;20428;-72
2023/06/15 04:50:29;;;;;;;6.53;4.03;;;18.90;56.00;;;;;;4921583;29;20460;-72
2023/06/15 04:52:56;;;;;;;4.73;2.87;;;19.50;54.70;;;;;;4932231;29;20501;-72
2023/06/15 04:55:21;;;;;;;2.83;2.53;;;20.10;53.70;;;;;;4956203;29;20425;-73
2023/06/15 04:57:48;;;;;;;3.73;2.73;;;20.60;52.70;;;;;;4929165;29;20507;-72
2023/06/15 05:00:15;;;;;;;6.20;3.20;;;21.10;51.60;;;;;;4921431;29;20744;-74
2023/06/15 05:02:45;;;;;;;4.57;2.60;;;21.50;50.70;;;;;;4953812;28;20427;-73
2023/06/15 05:05:13;;;;;;;4.03;3.10;;;21.90;49.80;;;;;;4924060;29;20508;-73
2023/06/15 05:07:39;;;;;;;3.20;2.90;;;22.20;49.00;;;;;;4949319;28;20431;-72
2023/06/15 05:10:05;;;;;;;3.30;3.00;;;22.50;48.20;;;;;;4940537;28;20481;-73
2023/06/15 05:12:32;;;;;;;3.97;2.83;;;22.80;47.50;;;;;;4959209;28;20369;-74
2023/06/15 05:14:57;;;;;;;3.70;3.40;;;23.10;47.00;;;;;;4925284;29;20432;-73
2023/06/15 05:17:24;;;;;;;4.30;3.07;;;23.30;46.10;;;;;;4930811;28;20220;-73
2023/06/15 05:19:50;;;;;;;4.00;2.90;;;23.60;45.60;;;;;;4950965;28;20427;-73
2023/06/15 05:22:16;;;;;;;4.80;3.40;;;23.70;45.00;;;;;;4959552;28;20177;-75
2023/06/15 05:24:42;;;;;;;5.63;3.50;;;23.90;44.30;;;;;;4940236;29;20975;-73
2023/06/15 05:27:08;;;;;;;5.13;3.63;;;24.10;44.00;;;;;;4958010;28;20429;-73
2023/06/15 05:29:36;;;;;;;6.10;3.60;;;24.20;43.50;;;;;;4940586;29;20472;-72
2023/06/15 05:32:04;;;;;;;4.10;2.67;;;24.30;43.00;;;;;;4945518;28;20410;-75
2023/06/15 05:34:31;;;;;;;5.23;3.90;;;24.50;42.80;;;;;;4970150;28;20447;-74
2023/06/15 05:36:57;;;;;;;4.23;3.00;;;24.70;42.30;;;;;;4951678;29;20556;-74
2023/06/15 05:39:27;;;;;;;6.40;2.90;;;24.90;42.10;;;;;;4955135;29;20205;-75
2023/06/15 05:41:52;;;;;;;3.33;2.93;;;25.00;41.80;;;;;;4953530;28;20430;-75
2023/06/15 05:44:18;;;;;;;4.43;3.37;;;25.10;41.50;;;;;;4968563;28;20180;-78
2023/06/15 05:46:44;;;;;;;5.77;3.57;;;25.10;41.20;;;;;;4975905;28;20207;-73
2023/06/15 05:49:10;;;;;;;5.47;3.57;;;25.20;41.00;;;;;;4947039;29;20209;-75
2023/06/15 05:51:36;;;;;;;2.60;2.40;;;25.30;40.60;;;;;;4960694;28;20458;-75
2023/06/15 05:54:02;;;;;;;3.40;3.10;;;25.40;40.50;;;;;;4969594;28;20207;-75
2023/06/15 05:56:27;;;;;;;4.27;3.80;;;25.50;40.30;;;;;;4980151;28;20238;-76
2023/06/15 05:58:54;;;;;;;5.83;3.77;;;25.60;40.00;;;;;;4962744;28;20463;-74
2023/06/15 06:01:19;;;;;;;6.13;3.80;;;25.60;40.00;;;;;;4979969;28;20188;-71
2023/06/15 06:03:47;;;;;;;4.40;2.97;;;25.90;39.80;;;;;;4962464;29;20263;-75
2023/06/15 06:06:14;;;;;;;3.70;3.40;;;26.00;39.60;;;;;;4990122;28;20435;-77
2023/06/15 06:08:40;;;;;;;5.77;3.70;;;26.10;39.40;;;;;;4973184;28;20431;-73
2023/06/15 06:11:07;;;;;;;4.43;3.87;;;26.00;39.30;;;;;;4989799;28;20427;-76
2023/06/15 06:13:42;;;;;;;5.67;4.40;;;25.90;39.50;;;;;;4962455;29;20188;-75
2023/06/15 06:16:08;;;;;;;6.87;3.60;;;26.10;39.50;;;;;;4940126;29;20459;-75
2023/06/15 06:18:34;;;;;;;5.17;4.27;;;26.30;39.20;;;;;;4959453;28;20519;-76
2023/06/15 06:21:00;;;;;;;4.00;3.60;;;26.40;39.00;;;;;;4942031;29;20157;-75
2023/06/15 06:23:25;;;;;;;3.97;2.57;;;26.50;38.70;;;;;;4959891;29;20248;-76
2023/06/15 06:25:51;;;;;;;5.30;3.57;;;26.40;37.70;;;;;;4958301;29;20184;-75
2023/06/15 06:28:18;;;;;;;3.60;3.27;;;26.60;37.70;;;;;;4944284;29;20413;-78
2023/06/15 06:30:44;;;;;;;3.97;3.57;;;26.70;37.70;;;;;;4958003;29;20436;-77
2023/06/15 06:33:12;;;;;;;4.07;3.10;;;26.60;37.60;;;;;;4957598;28;20237;-75
2023/06/15 06:35:38;;;;;;;4.63;3.27;;;26.50;37.60;;;;;;4977365;28;20196;-77
2023/06/15 06:38:03;;;;;;;4.30;3.20;;;26.70;37.60;;;;;;4977310;28;20530;-76
2023/06/15 06:40:29;;;;;;;3.70;3.10;;;26.60;37.40;;;;;;4955235;29;20209;-77
2023/06/15 06:42:55;;;;;;;3.60;3.07;;;26.60;37.50;;;;;;4956551;29;20236;-75
2023/06/15 06:45:24;;;;;;;4.97;3.20;;;26.50;37.50;;;;;;4943011;29;20828;-75
2023/06/15 06:47:49;;;;;;;4.20;3.47;;;26.60;37.50;;;;;;4958343;29;20391;-77
2023/06/15 06:50:18;;;;;;;4.33;3.73;;;26.60;37.50;;;;;;4977403;28;20220;-75
2023/06/15 06:52:46;;;;;;;5.30;3.73;;;26.60;37.40;;;;;;4991568;28;20156;-77
2023/06/15 06:55:12;;;;;;;5.43;3.30;;;26.30;37.40;;;;;;4959866;28;20387;-77
2023/06/15 06:57:40;;;;;;;3.87;3.43;;;26.30;37.80;;;;;;4974850;28;20998;-77
2023/06/15 07:00:10;;;;;;;4.53;3.00;;;26.30;37.90;;;;;;4976310;28;20273;-77
2023/06/15 07:02:35;;;;;;;4.47;3.50;;;26.30;37.90;;;;;;4976777;28;20467;-75
2023/06/15 07:05:01;;;;;;;7.73;3.60;;;26.30;38.10;;;;;;4958987;28;20416;-76
2023/06/15 07:07:27;;;;;;;4.70;3.93;;;26.30;38.10;;;;;;4959415;28;20208;-74
2023/06/15 07:09:53;;;;;;;8.27;3.13;;;26.10;38.50;;;;;;4974079;28;20422;-75
2023/06/15 07:12:19;;;;;;;4.07;3.00;;;26.10;38.70;;;;;;4959737;28;20203;-75
2023/06/15 07:14:45;;;;;;;6.83;4.17;;;26.10;38.50;;;;;;4958459;28;20180;-76
2023/06/15 07:17:11;;;;;;;4.23;3.63;;;26.00;38.70;;;;;;4971437;28;20693;-76
2023/06/15 07:19:37;;;;;;;5.30;3.97;;;25.90;39.00;;;;;;4975707;28;20720;-74
2023/06/15 07:22:02;;;;;;;7.50;4.17;;;25.90;39.30;;;;;;4955310;28;20420;-76
2023/06/15 07:24:28;;;;;;;4.47;3.17;;;26.00;39.20;;;;;;4990889;28;20160;-78
2023/06/15 07:26:56;;;;;;;4.40;3.37;;;26.10;38.90;;;;;;4957350;28;20243;-74
2023/06/15 07:29:22;;;;;;;3.90;2.80;;;26.10;38.90;;;;;;4971248;28;20440;-76
2023/06/15 07:31:48;;;;;;;4.73;3.80;;;26.00;38.70;;;;;;4975450;28;20482;-77
2023/06/15 07:34:13;;;;;;;4.10;3.50;;;25.80;38.60;;;;;;4976459;28;20432;-76
2023/06/15 07:36:39;;;;;;;5.50;4.07;;;25.60;39.30;;;;;;4958300;28;20181;-77
2023/06/15 07:39:05;;;;;;;7.93;4.23;;;25.40;39.70;;;;;;4973696;28;20549;-75
2023/06/15 07:41:31;;;;;;;4.03;3.40;;;25.10;40.30;;;;;;4971515;29;20169;-77
2023/06/15 07:43:56;;;;;;;4.67;3.63;;;24.80;40.60;;;;;;4955846;28;20180;-77
2023/06/15 07:46:22;;;;;;;3.93;2.90;;;24.50;41.20;;;;;;4959185;28;20195;-77
2023/06/15 07:48:48;;;;;;;4.00;3.60;;;24.40;41.80;;;;;;4966553;29;20185;-76
2023/06/15 07:51:14;;;;;;;5.30;3.70;;;24.30;42.00;;;;;;4938823;29;20196;-76
2023/06/15 07:53:39;;;;;;;4.87;3.80;;;24.30;41.30;;;;;;4982947;28;20180;-75
2023/06/15 07:56:05;;;;;;;4.17;3.77;;;24.20;41.60;;;;;;4986147;28;20177;-76
2023/06/15 07:58:31;;;;;;;3.97;3.07;;;24.10;42.00;;;;;;4937830;29;20222;-76
2023/06/15 08:00:56;;;;;;;4.13;3.63;;;24.00;42.20;;;;;;4944014;29;20206;-76
2023/06/15 08:03:22;;;;;;;5.97;3.17;;;24.00;42.70;;;;;;4967691;29;20184;-74
2023/06/15 08:05:48;;;;;;;3.90;2.97;;;24.00;42.70;;;;;;4936507;29;20189;-76
2023/06/15 08:08:14;;;;;;;4.77;3.97;;;23.90;42.40;;;;;;4955942;29;20411;-76
2023/06/15 08:10:40;;;;;;;5.30;3.50;;;24.00;42.70;;;;;;4950589;29;20206;-74
2023/06/15 08:13:06;;;;;;;5.10;3.23;;;24.00;42.30;;;;;;4919257;29;20265;-74
2023/06/15 08:15:35;;;;;;;6.00;3.37;;;24.10;41.20;;;;;;4942746;29;20247;-75
2023/06/15 08:18:00;;;;;;;6.33;4.40;;;24.00;41.20;;;;;;4954763;29;20461;-72
2023/06/15 08:20:26;;;;;;;4.23;3.83;;;24.00;41.30;;;;;;4948770;29;20457;-75
2023/06/15 08:22:52;;;;;;;8.60;4.47;;;24.00;41.40;;;;;;4946862;29;20622;-74
2023/06/15 08:25:17;;;;;;;6.53;4.53;;;24.10;41.10;;;;;;4949287;29;20182;-76
2023/06/15 08:27:43;;;;;;;4.50;4.10;;;24.20;40.40;;;;;;4948715;29;20278;-74
2023/06/15 08:30:09;;;;;;;6.93;4.70;;;24.30;40.00;;;;;;4931584;29;20269;-74
2023/06/15 08:32:35;;;;;;;4.50;3.30;;;24.30;39.90;;;;;;4952704;29;20188;-78
2023/06/15 08:35:01;;;;;;;4.83;3.93;;;24.30;39.80;;;;;;4951148;29;20417;-77
2023/06/15 08:37:27;;;;;;;4.13;3.70;;;24.30;39.60;;;;;;4918836;29;20236;-79
2023/06/15 08:39:52;;;;;;;7.47;4.67;;;24.30;39.70;;;;;;4902590;29;20202;-76
2023/06/15 08:42:21;;;;;;;5.60;3.13;;;24.20;40.00;;;;;;4951370;29;20181;-76
2023/06/15 08:44:50;;;;;;;7.30;3.23;;;24.20;40.40;;;;;;4952463;29;20185;-78
2023/06/15 08:47:16;;;;;;;4.90;3.60;;;24.20;40.50;;;;;;4951953;29;20491;-76
2023/06/15 08:49:45;;;;;;;3.10;2.80;;;24.20;40.60;;;;;;4967500;29;20455;-75
2023/06/15 08:52:16;;;;;;;3.30;3.00;;;24.30;40.70;;;;;;4942709;29;20425;-75
2023/06/15 08:54:42;;;;;;;4.23;3.63;;;24.40;40.50;;;;;;4943093;29;20436;-75
2023/06/15 08:57:12;;;;;;;6.80;3.93;;;24.50;40.50;;;;;;4959492;28;20578;-77
2023/06/15 08:59:50;;;;;;;;;;;;;;;;;;;;;
2023/06/15 09:02:29;;;;;;;6.70;3.13;;;24.60;39.70;;;;;;4988997;28;20456;-78
2023/06/15 09:05:06;;;;;;;7.47;3.73;;;24.60;39.70;;;;;;4957266;29;20489;-77
2023/06/15 09:07:32;;;;;;;5.77;4.27;;;24.70;39.70;;;;;;4966323;28;20435;-76
2023/06/15 09:10:27;;;;;;;3.47;3.17;;;24.70;39.50;;;;;;4956642;28;20596;-77
2023/06/15 09:12:57;;;;;;;4.97;4.47;;;24.70;39.40;;;;;;4950435;28;20191;-76
2023/06/15 09:15:28;;;;;;;4.97;3.97;;;24.80;39.60;;;;;;4968718;28;20716;-76
2023/06/15 09:17:58;;;;;;;4.30;3.90;;;24.80;39.50;;;;;;4980645;28;20455;-77
2023/06/15 09:20:26;;;;;;;6.27;4.40;;;24.90;39.60;;;;;;4948240;29;20448;-76
2023/06/15 09:23:00;;;;;;;4.53;3.97;;;25.00;38.40;;;;;;4952573;29;20421;-76
2023/06/15 09:25:26;;;;;;;4.80;3.97;;;24.90;38.10;;;;;;4953971;29;20417;-75
2023/06/15 09:28:00;;;;;;;4.23;3.83;;;24.90;38.30;;;;;;4968275;29;20417;-79
2023/06/15 09:30:33;;;;;;;7.07;4.23;;;25.10;38.60;;;;;;4969759;29;20216;-78
2023/06/15 09:33:20;;;;;;;3.10;2.57;;;25.20;38.60;;;;;;4971342;28;20426;-77
2023/06/15 09:36:00;;;;;;;5.40;2.90;;;25.60;38.60;;;;;;4966150;29;20456;-79
2023/06/15 09:38:44;;;;;;;7.50;5.43;;;25.80;38.00;;;;;;4944009;28;20487;-77
2023/06/15 09:41:10;;;;;;;6.07;4.60;;;25.90;37.00;;;;;;4995901;28;20412;-77
2023/06/15 09:43:40;;;;;;;4.53;3.70;;;25.90;36.80;;;;;;4995205;28;20399;-78
2023/06/15 09:46:11;;;;;;;4.40;3.80;;;26.10;36.70;;;;;;4959435;29;20416;-79
2023/06/15 09:48:38;;;;;;;4.70;4.13;;;26.40;36.60;;;;;;4972837;29;20458;-77
2023/06/15 09:51:04;;;;;;;4.87;4.37;;;26.60;35.60;;;;;;4957385;28;20433;-78
2023/06/15 09:53:33;;;;;;;5.87;3.83;;;26.60;35.00;;;;;;4994073;28;20509;-78
2023/06/15 09:56:00;;;;;;;5.90;4.37;;;26.80;34.20;;;;;;4966157;28;20189;-78
2023/06/15 09:58:26;;;;;;;4.90;4.23;;;26.70;33.80;;;;;;4968474;29;20472;-78
2023/06/15 10:00:58;;;;;;;9.37;4.97;;;26.70;34.00;;;;;;4994042;28;20423;-78
2023/06/15 10:03:25;;;;;;;4.93;3.40;;;26.70;34.20;;;;;;5007927;28;20459;-78
2023/06/15 10:05:58;;;;;;;3.83;3.43;;;26.70;33.90;;;;;;4973244;28;20409;-77
2023/06/15 10:08:30;;;;;;;4.57;3.80;;;26.70;34.10;;;;;;4978959;28;20404;-77
2023/06/15 10:10:58;;;;;;;4.33;3.80;;;26.70;34.10;;;;;;4969200;28;20482;-78
2023/06/15 10:13:30;;;;;;;4.00;3.70;;;26.80;33.70;;;;;;4961849;28;20420;-77
2023/06/15 10:15:58;;;;;;;4.73;4.23;;;27.00;33.70;;;;;;4959765;28;20430;-76
2023/06/15 10:18:29;;;;;;;5.20;3.60;;;27.40;33.50;;;;;;4956423;28;20559;-77
2023/06/15 10:21:39;;;;;;;;;;;;;;;;;;;;;
2023/06/15 10:24:19;;;;;;;4.53;4.13;;;28.10;32.60;;;;;;4971791;29;20440;-77
2023/06/15 10:26:45;;;;;;;3.90;3.50;;;28.30;31.80;;;;;;4965828;28;20428;-78
2023/06/15 10:29:52;;;;;;;6.67;3.77;;;28.40;32.00;;;;;;4973088;29;20488;-77
2023/06/15 10:32:36;;;;;;;6.23;4.10;;;28.60;31.90;;;;;;4953115;28;20423;-78
2023/06/15 10:35:09;;;;;;;7.20;4.30;;;28.60;31.60;;;;;;4992068;28;20471;-77
2023/06/15 10:37:35;;;;;;;8.03;3.73;;;28.50;31.70;;;;;;4955353;29;20465;-75
2023/06/15 10:40:31;;;;;;;4.40;4.00;;;28.50;31.60;;;;;;4972531;29;20425;-78
2023/06/15 10:42:59;;;;;;;6.90;4.40;;;28.60;31.50;;;;;;4941535;29;20395;-78
2023/06/15 10:45:28;;;;;;;4.07;3.73;;;28.50;31.00;;;;;;4953326;28;20430;-76
2023/06/15 10:47:55;;;;;;;4.73;4.33;;;28.10;31.60;;;;;;4977987;28;20467;-77
2023/06/15 10:50:21;;;;;;;4.20;3.80;;;27.80;32.00;;;;;;5003844;28;20454;-77
2023/06/15 10:52:47;;;;;;;4.97;4.23;;;27.50;32.70;;;;;;4965334;29;20507;-78
2023/06/15 10:55:14;;;;;;;5.90;3.87;;;27.30;32.80;;;;;;4942764;28;20192;-77
2023/06/15 10:57:40;;;;;;;4.37;3.80;;;27.10;32.90;;;;;;4976380;28;20216;-78
2023/06/15 11:00:08;;;;;;;4.93;4.30;;;26.80;32.80;;;;;;4959788;28;20502;-77
2023/06/15 11:02:33;;;;;;;6.77;4.00;;;26.60;32.80;;;;;;4958856;29;20738;-75
2023/06/15 11:05:02;;;;;;;5.60;4.10;;;26.50;33.10;;;;;;4957441;28;20412;-77
2023/06/15 11:07:29;;;;;;;4.93;4.10;;;26.60;33.10;;;;;;4981411;28;20656;-78
2023/06/15 11:10:01;;;;;;;5.07;4.07;;;26.80;33.30;;;;;;4940323;29;20425;-76
2023/06/15 11:12:36;;;;;;;5.80;5.20;;;26.90;33.10;;;;;;4950597;28;20844;-77
2023/06/15 11:15:03;;;;;;;4.40;3.90;;;27.10;33.10;;;;;;4974431;28;20566;-78
2023/06/15 11:17:29;;;;;;;4.87;4.37;;;27.10;32.70;;;;;;4939965;29;20500;-77
2023/06/15 11:19:56;;;;;;;4.73;4.20;;;27.10;32.60;;;;;;4954489;29;20453;-77
2023/06/15 11:22:25;;;;;;;4.77;3.63;;;27.00;31.90;;;;;;4955527;29;20421;-78
2023/06/15 11:24:54;;;;;;;8.00;4.10;;;27.00;32.40;;;;;;4940843;29;20384;-76
2023/06/15 11:27:23;;;;;;;7.90;4.30;;;27.20;32.30;;;;;;4975118;28;20495;-78
2023/06/15 11:29:55;;;;;;;10.10;4.73;;;27.20;31.20;;;;;;4961132;28;20436;-77
2023/06/15 11:32:27;;;;;;;5.60;3.53;;;27.20;30.60;;;;;;4977993;28;20475;-78
2023/06/15 11:35:03;;;;;;;6.00;4.30;;;27.10;30.10;;;;;;4975047;29;20417;-79
2023/06/15 11:37:29;;;;;;;6.10;4.37;;;27.40;29.00;;;;;;4958204;29;20464;-78
2023/06/15 11:39:55;;;;;;;7.77;4.47;;;27.40;28.80;;;;;;4975095;29;20424;-80
2023/06/15 11:42:22;;;;;;;4.57;3.27;;;27.40;29.10;;;;;;4959487;29;20750;-77
2023/06/15 11:44:49;;;;;;;4.77;3.83;;;27.30;28.90;;;;;;4943708;28;20185;-79
2023/06/15 11:47:16;;;;;;;5.77;3.23;;;27.50;29.10;;;;;;4960863;28;20416;-77
2023/06/15 11:49:44;;;;;;;6.10;3.20;;;27.60;29.20;;;;;;4947617;29;20464;-77
2023/06/15 11:52:11;;;;;;;6.73;3.23;;;27.70;28.90;;;;;;4969049;29;20459;-77
2023/06/15 11:54:36;;;;;;;7.70;4.00;;;27.70;29.00;;;;;;4960091;28;20426;-79
2023/06/15 11:57:02;;;;;;;5.50;4.10;;;27.80;29.10;;;;;;4990776;28;20554;-78
2023/06/15 11:59:28;;;;;;;8.00;3.73;;;27.80;29.00;;;;;;4988981;28;20228;-78
2023/06/15 12:01:58;;;;;;;6.27;4.37;;;27.80;28.80;;;;;;4988844;28;20172;-78
2023/06/15 12:04:25;;;;;;;5.90;3.63;;;27.90;28.70;;;;;;4970838;28;20453;-78
2023/06/15 12:06:51;;;;;;;4.13;3.33;;;28.10;28.90;;;;;;4954190;29;20420;-77
2023/06/15 12:09:19;;;;;;;3.20;2.70;;;28.20;28.80;;;;;;4971929;28;20617;-75
2023/06/15 12:11:45;;;;;;;6.07;4.23;;;28.20;29.00;;;;;;4973740;28;20890;-77
2023/06/15 12:14:21;;;;;;;14.83;6.27;;;28.20;28.20;;;;;;4958101;29;20772;-78
2023/06/15 12:16:51;;;;;;;12.63;5.93;;;28.00;27.90;;;;;;4971670;29;20412;-78
2023/06/15 12:19:18;;;;;;;4.27;3.80;;;27.90;28.00;;;;;;4971440;28;20448;-79
2023/06/15 12:21:44;;;;;;;4.80;4.30;;;27.90;28.10;;;;;;4972422;28;20409;-75
2023/06/15 12:24:17;;;;;;;4.43;4.03;;;27.80;28.20;;;;;;4971226;29;20420;-79
2023/06/15 12:27:03;;;;;;;4.77;3.77;;;27.60;28.60;;;;;;4972934;29;20188;-78
2023/06/15 12:29:28;;;;;;;4.67;4.20;;;27.50;28.90;;;;;;4969858;29;20440;-77
2023/06/15 12:31:55;;;;;;;8.37;4.97;;;27.70;28.80;;;;;;4971171;28;20493;-78
2023/06/15 12:34:28;;;;;;;6.60;3.43;;;28.00;28.30;;;;;;4981607;28;20220;-78
2023/06/15 12:36:57;;;;;;;4.87;4.37;;;28.30;27.90;;;;;;4970147;29;20489;-77
2023/06/15 12:39:30;;;;;;;6.53;5.00;;;28.30;27.60;;;;;;4953605;29;20433;-77
2023/06/15 12:42:01;;;;;;;5.20;3.50;;;28.20;27.60;;;;;;4971052;29;20431;-78
2023/06/15 12:44:26;;;;;;;6.57;3.90;;;28.50;27.70;;;;;;4973095;29;20764;-77
2023/06/15 12:46:52;;;;;;;4.57;4.17;;;28.60;27.60;;;;;;4973877;29;20401;-76
2023/06/15 12:49:17;;;;;;;5.40;4.50;;;28.50;27.20;;;;;;4955831;29;20228;-78
2023/06/15 12:51:46;;;;;;;6.83;4.40;;;28.50;27.70;;;;;;4989550;28;20221;-78
2023/06/15 12:54:12;;;;;;;7.07;4.50;;;28.40;28.00;;;;;;4974411;29;20228;-78